Portada
METAR-TAF:

METAR-TAF

Aeroports :

Futuna, França

latitud: 14-19S, longitud: 178-07W, altitud: 6 m

METAR: manca

Hora: 13:26 (01:26 UTC)

Pronòstic

L'informe es va fer fa 2 hores i 26 minuts, a les 23:00 UTC
Pronòstic vàlid del 27 a les 00 UTC al 27 a les 24 UTC
Vent 8 kt del Est/Sud-Est
Visibilitat 10 km o més
Escasses núvols a una alçada de 3000 ft
Núvols disperses a una alçada de 3800 ft
Temporalment
l' 27 a les 06 UTC al 27 a les 24 UTC
Escasses núvols a una alçada de 2000 ft, Cumulus congestus.
xàfecs de pluja
Probabilitat 30% :
Temporalment
l' 27 a les 18 UTC al 27 a les 24 UTC
Visibilitat: 4000 m
Cel ennuvolat a una alçada de 1200 ft
xàfecs de pluja

TAF: NLWF 262300Z 2700/2724 12008KT 9999 FEW030 SCT038 TEMPO 2706/2724 SHRA FEW020TCU PROB30 TEMPO 2718/2724 4000 SHRA BKN012

Observacions i pronòstics meteorològics de més de 4000 aeroports (METAR i TAF).

Les estacions disponibles són els punts grocs i vermells al mapa.

Posi el ratolí al punt desitjat per veure el nom de l'estació.

Feu clic per veure les observacions i els pronòstics meteorològics.

Per canviar el mapa: feu clic els botons verds amb una creu de color negre per apropar; al botó verd amb un guió per allunyar la imatge; o en les fletxes verdes per a mapes adjacents.


METAR-TAF: